Flugplatz Hünsborn

Für EDKH sind keine METAR/TAF Berichte vorhanden.
Es werden die Flugwettermeldungen vom Flugplatz Siegerland in 27 km Entfernung angezeigt.

Prognose für EDGS

vom 22.03. um 17:00 UTC

Zwischen 18:00 UTC und 21:00 UTC

Wind 5 kt aus 150°

Sichtweite 10 km oder mehr

keine signifikanten Wettererscheinungen

keine Wolken


Zwischen 21:00 und 00:00 UTC übergehend zu

Wind 5 kt aus 220°

Sichtweite 10 km oder mehr

keine signifikanten Wettererscheinungen

keine Wolken

TAF EDGS 221700Z 2218/2303 15005KT CAVOK BECMG 2221/2224 22005KT
Impressum